createdAt,value
2024-05-09T00:01:57.379Z,100.00
2024-05-09T00:06:59.245Z,100.00
2024-05-09T00:12:03.886Z,100.00
2024-05-09T00:17:05.962Z,100.00
2024-05-09T00:22:10.043Z,100.00
2024-05-09T00:27:15.047Z,100.00
2024-05-09T00:32:21.672Z,100.00
2024-05-09T00:37:23.638Z,100.00
2024-05-09T00:42:27.570Z,100.00
2024-05-09T00:47:29.557Z,100.00
2024-05-09T00:52:34.420Z,100.00
2024-05-09T00:57:39.864Z,100.00
2024-05-09T01:02:41.921Z,100.00
2024-05-09T01:07:44.994Z,100.00
2024-05-09T01:12:46.931Z,100.00
2024-05-09T01:17:51.297Z,100.00
2024-05-09T01:22:54.207Z,100.00
2024-05-09T01:27:56.083Z,100.00
2024-05-09T01:33:01.354Z,100.00
2024-05-09T01:38:05.920Z,100.00
2024-05-09T01:43:12.039Z,100.00
2024-05-09T01:48:14.286Z,100.00
2024-05-09T01:53:16.321Z,100.00
2024-05-09T01:58:18.271Z,100.00
2024-05-09T02:03:21.484Z,100.00
2024-05-09T02:08:23.465Z,100.00
2024-05-09T02:13:25.370Z,100.00
2024-05-09T02:18:29.546Z,100.00
2024-05-09T02:23:34.504Z,100.00
2024-05-09T02:28:36.488Z,100.00
2024-05-09T02:33:42.739Z,100.00
2024-05-09T02:38:44.989Z,100.00
2024-05-09T02:43:46.925Z,100.00
2024-05-09T02:48:49.036Z,100.00
2024-05-09T02:53:53.472Z,100.00
2024-05-09T02:58:57.589Z,100.00
2024-05-09T03:04:01.762Z,100.00
2024-05-09T03:09:09.681Z,100.00
2024-05-09T03:14:17.320Z,100.00
2024-05-09T03:19:22.081Z,100.00
2024-05-09T03:24:26.802Z,100.00
2024-05-09T03:29:31.354Z,100.00
2024-05-09T03:34:33.705Z,100.00
2024-05-09T03:39:36.084Z,100.00
2024-05-09T03:44:38.769Z,100.00
2024-05-09T03:49:41.096Z,100.00
2024-05-09T03:54:48.880Z,100.00
2024-05-09T03:59:53.173Z,100.00
2024-05-09T04:04:57.618Z,100.00
2024-05-09T04:09:59.690Z,100.00
2024-05-09T04:15:04.372Z,100.00
2024-05-09T04:20:10.568Z,100.00
2024-05-09T04:25:12.869Z,100.00
2024-05-09T04:30:25.776Z,100.00
2024-05-09T04:35:38.253Z,100.00
2024-05-09T04:40:40.652Z,100.00
2024-05-09T04:45:42.926Z,100.00
2024-05-09T04:50:45.255Z,100.00
2024-05-09T04:55:47.298Z,100.00
2024-05-09T05:00:49.255Z,100.00
2024-05-09T05:05:51.654Z,100.00
2024-05-09T05:10:56.172Z,100.00
2024-05-09T05:15:58.687Z,100.00
2024-05-09T05:21:01.186Z,100.00
2024-05-09T05:26:03.211Z,100.00
2024-05-09T05:31:05.238Z,100.00
2024-05-09T05:36:07.810Z,100.00
2024-05-09T05:41:10.276Z,100.00
2024-05-09T05:46:12.180Z,100.00
2024-05-09T05:51:14.215Z,100.00
2024-05-09T05:56:16.424Z,100.00
2024-05-09T06:01:20.881Z,100.00
2024-05-09T06:06:22.917Z,100.00
2024-05-09T06:11:27.479Z,100.00
2024-05-09T06:16:29.405Z,100.00
2024-05-09T06:21:31.275Z,100.00
2024-05-09T06:26:33.592Z,100.00
2024-05-09T06:31:45.036Z,100.00
2024-05-09T06:36:47.722Z,100.00
2024-05-09T06:41:50.486Z,100.00
2024-05-09T06:46:58.185Z,100.00
2024-05-09T06:52:02.179Z,100.00
2024-05-09T06:57:08.029Z,100.00
2024-05-09T07:02:10.311Z,100.00
2024-05-09T07:07:14.953Z,100.00
2024-05-09T07:12:17.706Z,100.00
2024-05-09T07:17:20.544Z,100.00
2024-05-09T07:22:25.693Z,100.00
2024-05-09T07:27:32.610Z,100.00
2024-05-09T07:32:36.966Z,100.00
2024-05-09T07:37:41.051Z,100.00
2024-05-09T07:42:46.148Z,100.00
2024-05-09T07:49:13.244Z,100.00
2024-05-09T07:53:37.282Z,100.00
2024-05-09T07:58:35.195Z,100.00
2024-05-09T08:03:40.535Z,100.00
2024-05-09T08:08:43.159Z,100.00
2024-05-09T08:13:45.349Z,100.00
2024-05-09T08:18:47.764Z,100.00
2024-05-09T08:23:49.749Z,100.00
2024-05-09T08:28:56.809Z,100.00
2024-05-09T08:34:02.067Z,100.00
2024-05-09T08:39:04.338Z,100.00
2024-05-09T08:44:10.001Z,100.00
2024-05-09T08:49:12.462Z,100.00
2024-05-09T08:54:18.048Z,100.00
2024-05-09T08:59:27.973Z,100.00
2024-05-09T09:04:31.327Z,100.00
2024-05-09T09:09:35.727Z,100.00
2024-05-09T09:14:38.070Z,100.00
2024-05-09T09:19:46.334Z,100.00
2024-05-09T09:24:51.944Z,100.00
2024-05-09T09:29:56.909Z,100.00
2024-05-09T09:35:01.254Z,100.00
2024-05-09T09:40:04.642Z,100.00
2024-05-09T09:45:09.195Z,100.00
2024-05-09T09:50:20.357Z,100.00
2024-05-09T09:55:26.354Z,100.00
2024-05-09T10:00:33.251Z,100.00
2024-05-09T10:05:41.184Z,100.00
2024-05-09T10:10:51.236Z,100.00
2024-05-09T10:15:54.744Z,100.00
2024-05-09T10:20:56.811Z,100.00
2024-05-09T10:26:00.407Z,100.00
2024-05-09T10:31:09.632Z,100.00
2024-05-09T10:36:13.178Z,100.00
2024-05-09T10:41:40.583Z,100.00
2024-05-09T10:46:43.490Z,100.00
2024-05-09T10:51:48.755Z,100.00
2024-05-09T10:56:58.192Z,100.00
2024-05-09T11:02:08.635Z,100.00
2024-05-09T11:07:13.972Z,100.00
2024-05-09T11:12:16.023Z,100.00
2024-05-09T11:17:18.619Z,100.00
2024-05-09T11:22:25.362Z,100.00
2024-05-09T11:27:27.871Z,100.00
2024-05-09T11:32:30.682Z,100.00
2024-05-09T11:37:36.052Z,100.00
2024-05-09T11:42:47.737Z,100.00
2024-05-09T11:47:51.364Z,100.00
2024-05-09T11:52:58.413Z,100.00
2024-05-09T11:58:00.689Z,100.00
2024-05-09T12:03:06.321Z,100.00
2024-05-09T12:08:10.069Z,100.00
2024-05-09T12:13:12.061Z,100.00
2024-05-09T12:18:16.598Z,100.00
2024-05-09T12:23:21.732Z,100.00
2024-05-09T12:28:24.307Z,100.00
2024-05-09T12:33:27.422Z,100.00
2024-05-09T12:38:32.754Z,100.00
2024-05-09T12:43:35.628Z,95.50
2024-05-09T12:48:43.016Z,93.00
2024-05-09T12:53:45.665Z,91.86
2024-05-09T12:58:49.833Z,88.97
2024-05-09T13:03:54.874Z,86.27
2024-05-09T13:08:57.570Z,84.70
2024-05-09T13:13:59.781Z,82.40
2024-05-09T13:19:07.031Z,79.29
2024-05-09T13:24:11.542Z,75.67
2024-05-09T13:29:13.516Z,74.72
2024-05-09T13:34:16.043Z,75.53
2024-05-09T13:39:18.427Z,76.10
2024-05-09T13:44:20.714Z,74.57
2024-05-09T13:49:22.863Z,70.60
2024-05-09T13:54:28.219Z,68.19
2024-05-09T13:59:30.663Z,68.83
2024-05-09T14:04:35.251Z,69.17
2024-05-09T14:09:37.854Z,67.96
2024-05-09T14:14:42.720Z,62.56
2024-05-09T14:19:46.549Z,58.12
2024-05-09T14:24:49.399Z,54.56
2024-05-09T14:29:52.480Z,52.44
2024-05-09T14:34:54.718Z,50.67
2024-05-09T14:40:01.586Z,48.93
2024-05-09T14:45:06.451Z,48.13
2024-05-09T14:50:16.865Z,46.99
2024-05-09T14:55:45.947Z,46.41
2024-05-09T15:01:10.490Z,45.61
2024-05-09T15:06:35.029Z,44.84
2024-05-09T15:11:57.521Z,44.73
2024-05-09T15:17:22.206Z,46.32
2024-05-09T15:22:47.616Z,48.25
2024-05-09T15:27:52.168Z,49.89
2024-05-09T15:32:57.000Z,50.83
2024-05-09T15:38:03.598Z,51.46
2024-05-09T15:43:07.001Z,51.90
2024-05-09T15:48:10.409Z,52.18
2024-05-09T15:53:13.933Z,51.38
2024-05-09T15:58:16.385Z,50.91
2024-05-09T16:03:21.565Z,50.51
2024-05-09T16:08:24.162Z,50.82
2024-05-09T16:13:26.419Z,50.77
2024-05-09T16:18:29.261Z,51.32
2024-05-09T16:23:31.414Z,51.28
2024-05-09T16:28:33.972Z,52.00
2024-05-09T16:33:40.556Z,53.10
2024-05-09T16:38:45.612Z,53.25
2024-05-09T16:43:47.800Z,54.36
2024-05-09T16:48:52.885Z,56.15
2024-05-09T16:53:55.595Z,57.61
2024-05-09T16:58:57.619Z,58.93
2024-05-09T17:04:00.132Z,60.28
2024-05-09T17:09:08.619Z,61.32
2024-05-09T17:14:16.992Z,63.16
2024-05-09T17:19:19.441Z,65.59
2024-05-09T17:24:22.084Z,67.33
2024-05-09T17:29:28.545Z,69.21
2024-05-09T17:34:33.514Z,70.79
2024-05-09T17:39:35.757Z,72.11
2024-05-09T17:44:37.892Z,73.17
2024-05-09T17:49:40.321Z,74.24
2024-05-09T17:54:42.738Z,75.66
2024-05-09T17:59:44.918Z,77.03
2024-05-09T18:04:47.158Z,77.56
2024-05-09T18:09:49.338Z,78.63
2024-05-09T18:14:51.397Z,79.37
2024-05-09T18:19:53.907Z,79.08
2024-05-09T18:24:56.354Z,79.77
2024-05-09T18:29:58.838Z,81.43
2024-05-09T18:35:00.894Z,83.10
2024-05-09T18:40:03.376Z,84.71
2024-05-09T18:45:07.321Z,85.37
2024-05-09T18:50:17.560Z,87.57
2024-05-09T18:55:27.230Z,89.61
2024-05-09T19:00:37.542Z,91.91
2024-05-09T19:05:44.653Z,94.11
2024-05-09T19:10:52.936Z,96.59
2024-05-09T19:15:55.416Z,98.11
2024-05-09T19:20:59.890Z,100.00
2024-05-09T19:26:04.151Z,100.00
2024-05-09T19:31:06.109Z,100.00
2024-05-09T19:36:08.282Z,100.00
2024-05-09T19:41:10.205Z,100.00
2024-05-09T19:46:12.554Z,100.00
2024-05-09T19:51:19.454Z,100.00
2024-05-09T19:56:26.397Z,100.00
2024-05-09T20:01:32.815Z,100.00
2024-05-09T20:06:36.684Z,100.00
2024-05-09T20:11:41.178Z,100.00
2024-05-09T20:16:44.741Z,100.00
2024-05-09T20:21:46.694Z,100.00
2024-05-09T20:26:48.599Z,100.00
2024-05-09T20:31:50.456Z,100.00
2024-05-09T20:36:57.893Z,100.00
2024-05-09T20:42:02.192Z,100.00
2024-05-09T20:47:04.268Z,100.00
2024-05-09T20:52:06.384Z,100.00
2024-05-09T20:57:13.213Z,100.00
2024-05-09T21:02:15.686Z,100.00
2024-05-09T21:07:17.963Z,100.00
2024-05-09T21:12:19.862Z,100.00
2024-05-09T21:17:21.866Z,100.00
2024-05-09T21:22:23.815Z,100.00
2024-05-09T21:27:25.836Z,100.00
2024-05-09T21:32:30.433Z,100.00
2024-05-09T21:37:32.474Z,100.00
2024-05-09T21:42:36.894Z,100.00
2024-05-09T21:47:41.136Z,100.00
2024-05-09T21:52:43.072Z,100.00
2024-05-09T21:57:44.921Z,100.00
2024-05-09T22:02:50.138Z,100.00
2024-05-09T22:07:54.119Z,100.00
2024-05-09T22:12:59.233Z,100.00
2024-05-09T22:18:01.285Z,100.00
2024-05-09T22:23:04.581Z,100.00
2024-05-09T22:28:07.423Z,100.00
2024-05-09T22:33:11.999Z,100.00
2024-05-09T22:38:14.807Z,100.00
2024-05-09T22:43:19.257Z,100.00
2024-05-09T22:48:21.665Z,100.00
2024-05-09T22:53:26.453Z,100.00
2024-05-09T22:58:30.618Z,100.00
2024-05-09T23:03:35.607Z,100.00
2024-05-09T23:08:37.645Z,100.00
2024-05-09T23:13:41.747Z,100.00
2024-05-09T23:18:43.798Z,100.00
2024-05-09T23:23:47.963Z,100.00
2024-05-09T23:28:52.020Z,100.00
2024-05-09T23:33:57.013Z,100.00
2024-05-09T23:38:59.177Z,100.00
2024-05-09T23:44:01.001Z,100.00
2024-05-09T23:49:03.093Z,100.00
2024-05-09T23:54:08.616Z,100.00
2024-05-09T23:59:10.485Z,100.00
